createdAt,value
2022-10-05T22:04:12.811Z,11.65
2022-10-05T22:06:43.236Z,9.65
2022-10-05T22:09:12.603Z,11.13
2022-10-05T22:13:13.642Z,10.70
2022-10-05T22:15:40.927Z,13.35
2022-10-05T22:18:15.709Z,12.38
2022-10-05T22:20:42.814Z,9.20
2022-10-05T22:23:09.837Z,11.52
2022-10-05T22:25:36.733Z,12.05
2022-10-05T22:28:05.504Z,12.10
2022-10-05T22:30:33.274Z,13.38
2022-10-05T22:32:59.950Z,13.52
2022-10-05T22:38:44.912Z,13.43
2022-10-05T22:41:12.419Z,12.30
2022-10-05T22:43:39.466Z,12.82
2022-10-05T22:46:13.407Z,12.48
2022-10-05T22:48:40.528Z,12.27
2022-10-05T22:51:09.695Z,12.70
2022-10-05T22:53:36.536Z,11.63
2022-10-05T22:56:11.644Z,10.48
2022-10-05T22:58:39.046Z,10.73
2022-10-05T23:01:11.366Z,10.80
2022-10-05T23:03:38.118Z,10.95
2022-10-05T23:06:10.846Z,9.95
2022-10-05T23:08:38.780Z,9.63
2022-10-05T23:11:21.898Z,10.63
2022-10-05T23:13:48.632Z,9.98
2022-10-05T23:16:17.917Z,9.00
2022-10-05T23:21:31.607Z,9.48
2022-10-05T23:23:58.263Z,9.35
2022-10-05T23:26:25.727Z,9.50
2022-10-05T23:28:52.766Z,9.50
2022-10-05T23:31:22.191Z,9.23
2022-10-05T23:33:49.093Z,9.52
2022-10-05T23:36:18.887Z,8.77
2022-10-05T23:38:46.146Z,9.27
2022-10-05T23:41:13.476Z,9.98
2022-10-05T23:43:40.443Z,8.93
2022-10-05T23:46:08.133Z,9.27
2022-10-05T23:48:38.210Z,9.77
2022-10-05T23:51:10.417Z,11.48
2022-10-05T23:53:37.468Z,10.55
2022-10-05T23:56:04.687Z,10.68
2022-10-05T23:58:31.834Z,10.45
